createdAt,value
2018-04-19T00:01:11.089Z,15.15
2018-04-19T00:03:39.546Z,15.21
2018-04-19T00:06:08.035Z,15.21
2018-04-19T00:08:36.483Z,15.18
2018-04-19T00:11:04.934Z,15.20
2018-04-19T00:13:33.411Z,15.10
2018-04-19T00:16:01.871Z,15.07
2018-04-19T00:18:30.731Z,15.03
2018-04-19T00:20:59.216Z,15.00
2018-04-19T00:23:27.649Z,14.89
2018-04-19T00:25:56.088Z,14.91
2018-04-19T00:28:24.588Z,14.90
2018-04-19T00:30:53.020Z,15.01
2018-04-19T00:33:21.445Z,15.03
2018-04-19T00:35:49.932Z,15.03
2018-04-19T00:38:18.357Z,14.98
2018-04-19T00:40:46.800Z,14.98
2018-04-19T00:43:15.296Z,14.94
2018-04-19T00:45:43.733Z,14.90
2018-04-19T00:48:12.190Z,14.86
2018-04-19T00:50:40.661Z,14.81
2018-04-19T00:53:09.952Z,14.81
2018-04-19T00:55:38.406Z,14.70
2018-04-19T00:58:06.892Z,14.70
2018-04-19T01:00:35.359Z,14.68
2018-04-19T01:03:03.788Z,14.62
2018-04-19T01:05:32.281Z,14.64
2018-04-19T01:08:00.713Z,14.78
2018-04-19T01:10:29.157Z,14.85
2018-04-19T01:12:57.674Z,14.86
2018-04-19T01:15:26.132Z,14.93
2018-04-19T01:17:54.566Z,14.96
2018-04-19T01:20:23.068Z,15.06
2018-04-19T01:22:51.507Z,15.07
2018-04-19T01:25:19.953Z,15.02
2018-04-19T01:27:48.425Z,14.92
2018-04-19T01:30:16.873Z,14.95
2018-04-19T01:32:45.313Z,14.90
2018-04-19T01:35:13.781Z,14.79
2018-04-19T01:37:42.241Z,14.78
2018-04-19T01:40:10.675Z,14.72
2018-04-19T01:42:39.165Z,14.54
2018-04-19T01:45:07.593Z,14.44
2018-04-19T01:47:36.017Z,14.37
2018-04-19T01:50:04.537Z,14.30
2018-04-19T01:52:32.955Z,14.25
2018-04-19T01:55:01.397Z,14.16
2018-04-19T01:57:29.912Z,14.20
2018-04-19T01:59:58.362Z,14.08
2018-04-19T02:02:26.792Z,13.98
2018-04-19T02:04:55.292Z,13.94
2018-04-19T02:07:23.720Z,13.92
2018-04-19T02:09:52.172Z,13.94
2018-04-19T02:12:20.630Z,13.91
2018-04-19T02:14:49.061Z,13.94
2018-04-19T02:17:17.520Z,13.95
2018-04-19T02:19:45.979Z,13.92
2018-04-19T02:22:14.421Z,13.79
2018-04-19T02:24:42.842Z,13.86
2018-04-19T02:27:11.304Z,13.86
2018-04-19T02:29:39.752Z,13.82
2018-04-19T02:32:08.192Z,13.74
2018-04-19T02:34:36.668Z,13.67
2018-04-19T02:37:05.112Z,13.58
2018-04-19T02:39:33.543Z,13.64
2018-04-19T02:42:02.030Z,13.59
2018-04-19T02:44:30.467Z,13.53
2018-04-19T02:46:58.908Z,13.51
2018-04-19T02:49:27.384Z,13.46
2018-04-19T02:51:55.809Z,13.49
2018-04-19T02:54:24.228Z,13.48
2018-04-19T02:56:52.738Z,13.53
2018-04-19T02:59:21.170Z,13.59
2018-04-19T03:01:49.597Z,13.49
2018-04-19T03:04:18.068Z,13.48
2018-04-19T03:06:46.518Z,13.45
2018-04-19T03:09:14.949Z,13.50
2018-04-19T03:11:43.421Z,13.48
2018-04-19T03:14:11.860Z,13.56
2018-04-19T03:16:40.303Z,13.55
2018-04-19T03:19:08.777Z,13.51
2018-04-19T03:21:37.207Z,13.58
2018-04-19T03:24:05.631Z,13.61
2018-04-19T03:26:34.089Z,13.63
2018-04-19T03:29:02.576Z,13.60
2018-04-19T03:31:31.011Z,13.54
2018-04-19T03:33:59.484Z,13.57
2018-04-19T03:36:28.162Z,13.56
2018-04-19T03:38:56.592Z,13.57
2018-04-19T03:41:25.064Z,13.56
2018-04-19T03:43:53.492Z,13.47
2018-04-19T03:46:21.941Z,13.47
2018-04-19T03:48:50.440Z,13.40
2018-04-19T03:51:18.871Z,13.29
2018-04-19T03:53:47.332Z,13.26
2018-04-19T03:56:15.846Z,13.27
2018-04-19T03:58:44.276Z,13.27
2018-04-19T04:01:12.793Z,13.20
2018-04-19T04:03:41.241Z,13.10
2018-04-19T04:06:09.685Z,13.10
2018-04-19T04:08:38.116Z,13.13
2018-04-19T04:11:06.631Z,13.05
2018-04-19T04:13:35.077Z,12.97
2018-04-19T04:16:03.510Z,12.87
2018-04-19T04:18:43.753Z,12.88
2018-04-19T04:21:18.911Z,12.76
2018-04-19T04:23:55.241Z,12.79
2018-04-19T04:26:23.688Z,12.72
2018-04-19T04:28:52.129Z,12.71
2018-04-19T04:31:20.704Z,12.69
2018-04-19T04:33:49.115Z,12.69
2018-04-19T04:36:17.548Z,12.73
2018-04-19T04:38:46.021Z,12.80
2018-04-19T04:41:14.456Z,12.76
2018-04-19T04:43:42.897Z,12.77
2018-04-19T04:46:11.403Z,12.75
2018-04-19T04:48:39.840Z,12.68
2018-04-19T04:51:08.289Z,12.81
2018-04-19T04:53:36.821Z,12.80
2018-04-19T04:56:05.253Z,12.86
2018-04-19T04:58:33.689Z,12.94
2018-04-19T05:01:02.178Z,12.96
2018-04-19T05:03:30.618Z,13.01
2018-04-19T05:05:59.092Z,13.09
2018-04-19T05:08:27.614Z,13.13
2018-04-19T05:10:56.078Z,13.14
2018-04-19T05:13:24.517Z,13.19
2018-04-19T05:15:53.013Z,13.31
2018-04-19T05:18:21.455Z,13.39
2018-04-19T05:20:49.898Z,13.35
2018-04-19T05:23:18.396Z,13.45
2018-04-19T05:25:46.824Z,13.53
2018-04-19T05:28:15.271Z,13.60
2018-04-19T05:30:43.765Z,13.68
2018-04-19T05:33:12.202Z,13.68
2018-04-19T05:35:40.647Z,13.79
2018-04-19T05:38:09.140Z,13.84
2018-04-19T05:40:37.603Z,13.90
2018-04-19T05:43:06.064Z,13.88
2018-04-19T05:45:34.555Z,14.02
2018-04-19T05:48:02.986Z,14.04
2018-04-19T05:50:31.421Z,14.18
2018-04-19T05:52:59.910Z,14.30
2018-04-19T05:55:28.343Z,14.44
2018-04-19T05:57:56.797Z,14.51
2018-04-19T06:00:25.283Z,14.63
2018-04-19T06:02:53.718Z,14.67
2018-04-19T06:05:22.149Z,14.76
2018-04-19T06:07:50.644Z,14.84
2018-04-19T06:10:19.083Z,14.93
2018-04-19T06:12:47.536Z,15.06
2018-04-19T06:15:16.059Z,15.23
2018-04-19T06:17:44.516Z,15.43
2018-04-19T06:20:12.998Z,15.57
2018-04-19T06:22:41.496Z,15.73
2018-04-19T06:25:09.940Z,15.91
2018-04-19T06:27:38.369Z,16.09
2018-04-19T06:30:06.908Z,16.21
2018-04-19T06:32:35.338Z,16.33
2018-04-19T06:35:03.816Z,16.47
2018-04-19T06:37:32.388Z,16.59
2018-04-19T06:40:00.824Z,16.72
2018-04-19T06:42:29.268Z,16.86
2018-04-19T06:44:57.740Z,16.96
2018-04-19T06:47:26.180Z,17.11
2018-04-19T06:49:54.620Z,17.29
2018-04-19T06:52:23.120Z,17.37
2018-04-19T06:54:51.572Z,17.39
2018-04-19T06:57:20.008Z,17.45
2018-04-19T06:59:48.493Z,17.51
2018-04-19T07:02:16.949Z,17.72
2018-04-19T07:04:45.382Z,17.82
2018-04-19T07:07:13.891Z,17.96
2018-04-19T07:09:42.321Z,18.07
2018-04-19T07:12:10.775Z,18.24
2018-04-19T07:14:39.259Z,18.34
2018-04-19T07:17:07.699Z,18.46
2018-04-19T07:19:36.142Z,18.56
2018-04-19T07:22:04.731Z,18.61
2018-04-19T07:24:33.181Z,18.75
2018-04-19T07:27:01.632Z,18.90
2018-04-19T07:29:30.105Z,19.04
2018-04-19T07:31:58.553Z,19.12
2018-04-19T07:34:27.001Z,19.28
2018-04-19T07:36:55.472Z,19.47
2018-04-19T07:39:23.895Z,19.55
2018-04-19T07:41:52.331Z,19.69
2018-04-19T07:44:20.831Z,19.72
2018-04-19T07:46:49.288Z,19.86
2018-04-19T07:49:17.724Z,19.93
2018-04-19T07:51:46.232Z,20.17
2018-04-19T07:54:14.669Z,20.32
2018-04-19T07:56:43.121Z,20.49
2018-04-19T07:59:11.608Z,20.60
2018-04-19T08:01:40.053Z,20.76
2018-04-19T08:04:08.501Z,20.91
2018-04-19T08:06:36.982Z,21.09
2018-04-19T08:09:05.468Z,21.34
2018-04-19T08:11:33.898Z,21.51
2018-04-19T08:14:02.407Z,21.60
2018-04-19T08:16:30.846Z,21.73
2018-04-19T08:18:59.278Z,21.82
2018-04-19T08:21:27.759Z,21.89
2018-04-19T08:23:56.205Z,21.94
2018-04-19T08:26:24.644Z,22.06
2018-04-19T08:28:53.121Z,22.07
2018-04-19T08:31:21.560Z,22.29
2018-04-19T08:33:49.996Z,22.41
2018-04-19T08:36:18.465Z,22.54
2018-04-19T08:38:46.913Z,22.65
2018-04-19T08:41:15.380Z,22.82
2018-04-19T08:43:43.872Z,23.01
2018-04-19T08:46:12.341Z,23.23
2018-04-19T08:48:40.781Z,23.37
2018-04-19T08:51:09.266Z,23.28
2018-04-19T08:53:37.704Z,23.38
2018-04-19T08:56:06.189Z,23.52
2018-04-19T08:58:34.649Z,23.81
2018-04-19T09:01:03.092Z,23.90
2018-04-19T09:03:31.522Z,23.73
2018-04-19T09:06:00.015Z,23.88
2018-04-19T09:08:28.470Z,23.99
2018-04-19T09:10:56.951Z,24.00
2018-04-19T09:13:25.444Z,24.12
2018-04-19T09:15:53.882Z,24.38
2018-04-19T09:18:22.320Z,24.39
2018-04-19T09:20:50.799Z,24.50
2018-04-19T09:23:19.229Z,24.65
2018-04-19T09:25:47.669Z,24.69
2018-04-19T09:28:16.131Z,24.82
2018-04-19T09:30:44.575Z,25.03
2018-04-19T09:33:13.004Z,25.24
2018-04-19T09:35:41.487Z,25.33
2018-04-19T09:38:09.943Z,25.57
2018-04-19T09:40:38.384Z,25.80
2018-04-19T09:43:06.855Z,25.91
2018-04-19T09:45:35.294Z,26.02
2018-04-19T09:48:03.745Z,26.02
2018-04-19T09:50:32.216Z,25.86
2018-04-19T09:53:00.660Z,25.90
2018-04-19T09:55:29.108Z,26.03
2018-04-19T09:58:08.265Z,26.14
2018-04-19T10:00:42.265Z,26.18
2018-04-19T10:03:16.196Z,26.49
2018-04-19T10:05:47.492Z,26.74
2018-04-19T10:08:15.972Z,26.82
2018-04-19T10:10:44.472Z,26.82
2018-04-19T10:13:12.906Z,26.88
2018-04-19T10:15:41.354Z,26.76
2018-04-19T10:18:09.828Z,26.88
2018-04-19T10:20:38.260Z,26.97
2018-04-19T10:23:06.709Z,27.06
2018-04-19T10:25:35.195Z,27.20
2018-04-19T10:28:03.632Z,27.19
2018-04-19T10:30:32.080Z,27.05
2018-04-19T10:33:00.572Z,27.03
2018-04-19T10:35:29.018Z,27.27
2018-04-19T10:37:57.448Z,27.27
2018-04-19T10:40:25.913Z,27.38
2018-04-19T10:42:54.376Z,27.49
2018-04-19T10:45:22.820Z,27.57
2018-04-19T10:47:51.538Z,27.50
2018-04-19T10:50:19.979Z,27.70
2018-04-19T10:52:48.446Z,27.77
2018-04-19T10:55:16.938Z,27.85
2018-04-19T10:57:45.366Z,27.90
2018-04-19T11:00:13.799Z,28.01
2018-04-19T11:02:42.282Z,27.86
2018-04-19T11:05:10.714Z,27.81
2018-04-19T11:07:39.157Z,27.96
2018-04-19T11:10:07.637Z,28.10
2018-04-19T11:12:36.087Z,28.25
2018-04-19T11:15:04.536Z,28.32
2018-04-19T11:17:33.047Z,28.01
2018-04-19T11:20:01.522Z,28.27
2018-04-19T11:22:29.999Z,28.63
2018-04-19T11:24:58.504Z,28.76
2018-04-19T11:27:26.932Z,28.87
2018-04-19T11:29:55.379Z,28.87
2018-04-19T11:32:23.863Z,28.85
2018-04-19T11:34:52.297Z,28.86
2018-04-19T11:37:20.718Z,28.84
2018-04-19T11:39:49.218Z,29.03
2018-04-19T11:42:17.648Z,29.12
2018-04-19T11:44:46.088Z,29.25
2018-04-19T11:47:14.560Z,29.45
2018-04-19T11:49:43.000Z,29.42
2018-04-19T11:52:11.432Z,29.34
2018-04-19T11:54:39.986Z,29.12
2018-04-19T11:57:08.453Z,29.13
2018-04-19T11:59:36.916Z,29.16
2018-04-19T12:02:05.424Z,29.19
2018-04-19T12:04:33.852Z,29.12
2018-04-19T12:07:02.313Z,28.93
2018-04-19T12:09:30.825Z,28.91
2018-04-19T12:11:59.277Z,29.06
2018-04-19T12:14:27.741Z,29.20
2018-04-19T12:16:56.219Z,29.01
2018-04-19T12:19:24.660Z,28.98
2018-04-19T12:21:53.105Z,29.00
2018-04-19T12:24:21.603Z,29.01
2018-04-19T12:26:50.051Z,29.02
2018-04-19T12:29:18.525Z,29.10
2018-04-19T12:31:47.020Z,29.18
2018-04-19T12:34:15.460Z,29.25
2018-04-19T12:36:43.899Z,29.22
2018-04-19T12:39:12.376Z,29.15
2018-04-19T12:41:40.848Z,29.24
2018-04-19T12:44:09.297Z,29.24
2018-04-19T12:46:37.768Z,29.12
2018-04-19T12:49:06.208Z,29.24
2018-04-19T12:51:34.620Z,29.34
2018-04-19T12:54:03.142Z,29.50
2018-04-19T12:56:31.631Z,29.49
2018-04-19T12:59:00.026Z,29.52
2018-04-19T13:01:28.543Z,29.35
2018-04-19T13:03:56.960Z,29.35
2018-04-19T13:06:25.393Z,29.36
2018-04-19T13:08:53.876Z,29.37
2018-04-19T13:11:22.322Z,29.41
2018-04-19T13:13:50.748Z,29.45
2018-04-19T13:16:19.232Z,29.20
2018-04-19T13:18:47.663Z,29.50
2018-04-19T13:21:16.089Z,29.42
2018-04-19T13:23:44.571Z,29.32
2018-04-19T13:26:13.018Z,29.25
2018-04-19T13:28:41.451Z,29.16
2018-04-19T13:31:09.940Z,29.12
2018-04-19T13:33:38.372Z,29.16
2018-04-19T13:36:06.811Z,29.15
2018-04-19T13:38:35.268Z,28.98
2018-04-19T13:41:03.730Z,28.93
2018-04-19T13:43:32.185Z,28.78
2018-04-19T13:46:00.680Z,28.69
2018-04-19T13:48:29.144Z,28.80
2018-04-19T13:50:57.572Z,28.93
2018-04-19T13:53:26.072Z,28.99
2018-04-19T13:55:54.552Z,28.85
2018-04-19T13:58:22.973Z,28.73
2018-04-19T14:00:51.452Z,28.65
2018-04-19T14:03:19.872Z,28.63
2018-04-19T14:05:48.369Z,28.84
2018-04-19T14:08:16.827Z,28.60
2018-04-19T14:10:45.249Z,28.52
2018-04-19T14:13:13.664Z,28.58
2018-04-19T14:15:42.140Z,28.36
2018-04-19T14:18:10.579Z,28.27
2018-04-19T14:20:39.012Z,28.13
2018-04-19T14:23:07.482Z,28.11
2018-04-19T14:25:35.916Z,27.96
2018-04-19T14:28:04.384Z,27.79
2018-04-19T14:30:32.848Z,27.71
2018-04-19T14:33:01.281Z,27.57
2018-04-19T14:35:29.708Z,27.34
2018-04-19T14:37:58.172Z,27.23
2018-04-19T14:40:26.596Z,27.11
2018-04-19T14:42:55.031Z,27.05
2018-04-19T14:45:23.520Z,26.90
2018-04-19T14:47:51.941Z,26.84
2018-04-19T14:50:20.379Z,26.77
2018-04-19T14:52:48.844Z,26.80
2018-04-19T14:55:17.299Z,26.68
2018-04-19T14:57:45.748Z,26.61
2018-04-19T15:00:14.235Z,26.50
2018-04-19T15:02:42.674Z,26.38
2018-04-19T15:05:11.108Z,26.38
2018-04-19T15:07:39.588Z,26.38
2018-04-19T15:10:08.037Z,26.41
2018-04-19T15:12:36.460Z,26.41
2018-04-19T15:15:04.936Z,26.46
2018-04-19T15:17:33.371Z,26.35
2018-04-19T15:20:01.875Z,26.20
2018-04-19T15:22:30.326Z,26.14
2018-04-19T15:24:58.804Z,26.01
2018-04-19T15:27:27.246Z,25.90
2018-04-19T15:29:55.716Z,25.84
2018-04-19T15:32:24.176Z,25.81
2018-04-19T15:34:52.612Z,25.75
2018-04-19T15:37:21.120Z,25.73
2018-04-19T15:39:49.584Z,25.63
2018-04-19T15:42:18.017Z,25.58
2018-04-19T15:44:46.510Z,25.54
2018-04-19T15:47:14.949Z,25.47
2018-04-19T15:49:43.400Z,25.49
2018-04-19T15:52:11.878Z,25.49
2018-04-19T15:54:40.312Z,25.44
2018-04-19T15:57:08.748Z,25.42
2018-04-19T15:59:37.233Z,25.32
2018-04-19T16:02:05.756Z,25.20
2018-04-19T16:04:34.384Z,25.14
2018-04-19T16:07:02.868Z,25.17
2018-04-19T16:09:31.343Z,25.08
2018-04-19T16:11:59.832Z,25.07
2018-04-19T16:14:28.309Z,25.05
2018-04-19T16:16:56.744Z,24.99
2018-04-19T16:19:25.184Z,24.93
2018-04-19T16:21:53.692Z,24.88
2018-04-19T16:24:22.141Z,24.86
2018-04-19T16:26:50.576Z,24.77
2018-04-19T16:29:19.040Z,24.75
2018-04-19T16:31:47.504Z,24.70
2018-04-19T16:34:15.942Z,24.64
2018-04-19T16:36:44.421Z,24.61
2018-04-19T16:39:12.864Z,24.61
2018-04-19T16:41:41.319Z,24.51
2018-04-19T16:44:09.796Z,24.45
2018-04-19T16:46:38.231Z,24.37
2018-04-19T16:49:06.664Z,24.29
2018-04-19T16:51:35.136Z,24.29
2018-04-19T16:54:03.580Z,24.24
2018-04-19T16:56:32.016Z,24.20
2018-04-19T16:59:00.489Z,24.12
2018-04-19T17:01:28.932Z,24.08
2018-04-19T17:03:57.431Z,24.06
2018-04-19T17:06:25.949Z,24.01
2018-04-19T17:08:54.380Z,23.95
2018-04-19T17:11:22.805Z,23.92
2018-04-19T17:13:51.296Z,23.85
2018-04-19T17:16:19.729Z,23.80
2018-04-19T17:18:48.163Z,23.79
2018-04-19T17:21:16.647Z,23.77
2018-04-19T17:23:45.101Z,23.62
2018-04-19T17:26:13.545Z,23.59
2018-04-19T17:28:42.040Z,23.53
2018-04-19T17:31:10.472Z,23.47
2018-04-19T17:33:38.911Z,23.42
2018-04-19T17:36:07.402Z,23.35
2018-04-19T17:38:35.824Z,23.25
2018-04-19T17:41:04.508Z,23.22
2018-04-19T17:43:33.037Z,23.14
2018-04-19T17:46:01.483Z,23.15
2018-04-19T17:48:29.936Z,23.09
2018-04-19T17:50:58.406Z,23.02
2018-04-19T17:53:26.837Z,22.93
2018-04-19T17:55:55.268Z,22.89
2018-04-19T17:58:23.900Z,22.83
2018-04-19T18:00:52.336Z,22.76
2018-04-19T18:03:20.787Z,22.67
2018-04-19T18:05:49.297Z,22.62
2018-04-19T18:08:17.746Z,22.61
2018-04-19T18:10:46.192Z,22.51
2018-04-19T18:13:14.704Z,22.47
2018-04-19T18:15:43.175Z,22.38
2018-04-19T18:18:11.612Z,22.35
2018-04-19T18:20:40.085Z,22.26
2018-04-19T18:23:08.520Z,22.23
2018-04-19T18:25:36.948Z,22.10
2018-04-19T18:28:05.423Z,22.09
2018-04-19T18:30:33.885Z,22.05
2018-04-19T18:33:02.334Z,22.02
2018-04-19T18:35:30.804Z,21.93
2018-04-19T18:37:59.263Z,21.89
2018-04-19T18:40:27.697Z,21.83
2018-04-19T18:42:56.166Z,21.72
2018-04-19T18:45:24.611Z,21.71
2018-04-19T18:47:53.043Z,21.63
2018-04-19T18:50:21.528Z,21.56
2018-04-19T18:52:49.980Z,21.53
2018-04-19T18:55:18.410Z,21.45
2018-04-19T18:57:46.896Z,21.39
2018-04-19T19:00:16.236Z,21.35
2018-04-19T19:02:44.684Z,21.24
2018-04-19T19:05:13.171Z,21.19
2018-04-19T19:07:41.628Z,21.12
2018-04-19T19:10:10.050Z,21.07
2018-04-19T19:12:38.524Z,21.02
2018-04-19T19:15:15.973Z,21.01
2018-04-19T19:17:56.420Z,21.01
2018-04-19T19:20:24.857Z,20.92
2018-04-19T19:22:53.307Z,20.77
2018-04-19T19:25:21.787Z,20.60
2018-04-19T19:27:50.220Z,20.51
2018-04-19T19:30:18.644Z,20.40
2018-04-19T19:32:47.128Z,20.34
2018-04-19T19:35:15.612Z,20.24
2018-04-19T19:37:44.048Z,20.20
2018-04-19T19:40:12.520Z,20.12
2018-04-19T19:42:40.980Z,20.15
2018-04-19T19:45:09.465Z,20.11
2018-04-19T19:47:37.991Z,20.14
2018-04-19T19:50:06.440Z,20.15
2018-04-19T19:52:34.886Z,20.15
2018-04-19T19:55:03.364Z,20.12
2018-04-19T19:57:31.789Z,20.05
2018-04-19T20:00:00.216Z,20.09
2018-04-19T20:02:28.716Z,20.07
2018-04-19T20:04:57.147Z,20.03
2018-04-19T20:07:25.593Z,19.92
2018-04-19T20:09:54.056Z,19.94
2018-04-19T20:12:22.501Z,19.94
2018-04-19T20:14:50.935Z,19.94
2018-04-19T20:17:19.396Z,19.91
2018-04-19T20:19:47.861Z,19.85
2018-04-19T20:22:16.334Z,19.84
2018-04-19T20:24:44.821Z,19.83
2018-04-19T20:27:13.249Z,19.82
2018-04-19T20:29:41.689Z,19.76
2018-04-19T20:32:10.192Z,19.74
2018-04-19T20:34:38.644Z,19.67
2018-04-19T20:37:07.078Z,19.71
2018-04-19T20:39:35.582Z,19.59
2018-04-19T20:42:04.016Z,19.55
2018-04-19T20:44:32.450Z,19.51
2018-04-19T20:47:00.948Z,19.33
2018-04-19T20:49:29.388Z,19.26
2018-04-19T20:51:57.839Z,19.19
2018-04-19T20:54:26.333Z,19.17
2018-04-19T20:56:54.808Z,19.14
2018-04-19T20:59:23.248Z,19.08
2018-04-19T21:01:51.723Z,19.06
2018-04-19T21:04:20.176Z,19.10
2018-04-19T21:06:48.637Z,18.97
2018-04-19T21:09:17.108Z,18.91
2018-04-19T21:11:45.560Z,18.81
2018-04-19T21:14:13.989Z,18.80
2018-04-19T21:16:42.496Z,18.61
2018-04-19T21:19:10.934Z,18.60
2018-04-19T21:21:39.744Z,18.49
2018-04-19T21:24:08.380Z,18.37
2018-04-19T21:26:36.803Z,18.29
2018-04-19T21:29:05.224Z,18.22
2018-04-19T21:31:33.724Z,18.13
2018-04-19T21:34:02.191Z,18.19
2018-04-19T21:36:30.684Z,18.26
2018-04-19T21:38:59.204Z,18.16
2018-04-19T21:41:27.649Z,18.13
2018-04-19T21:43:56.085Z,18.14
2018-04-19T21:46:24.583Z,18.12
2018-04-19T21:48:53.020Z,17.91
2018-04-19T21:51:21.464Z,17.84
2018-04-19T21:53:49.949Z,17.89
2018-04-19T21:56:18.376Z,17.85
2018-04-19T21:58:46.811Z,17.70
2018-04-19T22:01:15.287Z,17.67
2018-04-19T22:03:43.736Z,17.64
2018-04-19T22:06:12.198Z,17.64
2018-04-19T22:08:40.678Z,17.59
2018-04-19T22:11:09.187Z,17.55
2018-04-19T22:13:37.637Z,17.52
2018-04-19T22:16:06.129Z,17.49
2018-04-19T22:18:34.556Z,17.41
2018-04-19T22:21:02.990Z,17.44
2018-04-19T22:23:31.476Z,17.40
2018-04-19T22:25:59.913Z,17.31
2018-04-19T22:28:28.349Z,17.25
2018-04-19T22:30:56.833Z,17.23
2018-04-19T22:33:25.299Z,17.14
2018-04-19T22:35:53.724Z,17.13
2018-04-19T22:38:22.193Z,17.04
2018-04-19T22:40:50.633Z,17.00
2018-04-19T22:43:19.083Z,16.92
2018-04-19T22:45:47.556Z,16.88
2018-04-19T22:48:16.329Z,16.82
2018-04-19T22:50:44.800Z,16.73
2018-04-19T22:53:13.284Z,16.64
2018-04-19T22:55:41.712Z,16.69
2018-04-19T22:58:10.155Z,16.59
2018-04-19T23:00:38.638Z,16.55
2018-04-19T23:03:07.061Z,16.51
2018-04-19T23:05:35.499Z,16.52
2018-04-19T23:08:04.000Z,16.51
2018-04-19T23:10:32.458Z,16.48
2018-04-19T23:13:00.945Z,16.39
2018-04-19T23:15:29.418Z,16.35
2018-04-19T23:17:57.889Z,16.34
2018-04-19T23:20:26.345Z,16.25
2018-04-19T23:22:54.818Z,16.21
2018-04-19T23:25:23.285Z,16.13
2018-04-19T23:27:51.784Z,16.01
2018-04-19T23:30:20.239Z,15.97
2018-04-19T23:32:48.685Z,15.84
2018-04-19T23:35:17.126Z,15.74
2018-04-19T23:37:45.605Z,15.68
2018-04-19T23:40:14.039Z,15.69
2018-04-19T23:42:42.497Z,15.59
2018-04-19T23:45:10.981Z,15.53
2018-04-19T23:47:39.434Z,15.48
2018-04-19T23:50:07.888Z,15.46
2018-04-19T23:52:36.383Z,15.43
2018-04-19T23:55:04.848Z,15.37
2018-04-19T23:57:33.285Z,15.28
